Time;durP1;ratioP1;P1;durP2;ratioP2;P2;SDS_P1;SDS_P2;PMS_P1;PMS_P2;Temp;Humidity;BMP_temperature;BMP_pressure;BME280_temperature;BME280_humidity;BME280_pressure;Samples;Min_cycle;Max_cycle;Signal;HPM_P1;HPM_P2
2022/09/11 00:01:28;;;;;;;28.00;15.52;;;;;;;8.16;76.37;100303.44;4964248;28;20031;-58
2022/09/11 00:03:56;;;;;;;25.35;15.82;;;;;;;8.18;75.42;100304.28;4973618;28;20041;-58
2022/09/11 00:06:23;;;;;;;22.83;14.27;;;;;;;8.16;76.86;100300.88;4973929;28;20050;-58
2022/09/11 00:08:53;;;;;;;24.50;14.75;;;;;;;7.81;76.34;100242.44;4958118;28;20051;-58
2022/09/11 00:11:21;;;;;;;23.42;14.05;;;;;;;8.00;76.11;100295.72;4971483;28;20106;-58
2022/09/11 00:13:50;;;;;;;22.33;13.77;;;;;;;8.10;75.44;100294.84;4965201;29;20034;-58
2022/09/11 00:16:29;;;;;;;25.73;15.02;;;;;;;8.17;76.30;100295.69;4965478;29;20023;-59
2022/09/11 00:18:58;;;;;;;24.25;14.45;;;;;;;7.75;76.65;100240.72;4965525;29;20319;-58
2022/09/11 00:21:24;;;;;;;20.77;14.30;;;;;;;8.09;76.09;100303.47;4984506;28;20034;-59
2022/09/11 00:23:50;;;;;;;22.67;14.57;;;;;;;8.04;76.40;100301.75;4968976;28;20073;-59
2022/09/11 00:26:20;;;;;;;22.02;15.35;;;;;;;8.01;75.59;100301.72;4965210;29;20023;-58
2022/09/11 00:28:46;;;;;;;22.88;15.68;;;;;;;8.03;75.67;100298.28;4948016;29;20212;-58
2022/09/11 00:31:15;;;;;;;24.58;15.10;;;;;;;7.95;75.77;100320.66;4958402;28;20023;-58
2022/09/11 00:33:41;;;;;;;19.92;14.73;;;;;;;7.94;76.73;100308.63;4984536;28;20266;-58
2022/09/11 00:36:11;;;;;;;21.88;13.93;;;;;;;7.93;76.07;100323.22;4984679;28;20062;-58
2022/09/11 00:38:38;;;;;;;21.30;14.40;;;;;;;7.91;76.65;100313.81;4954344;29;20307;-58
2022/09/11 00:41:07;;;;;;;23.60;15.43;;;;;;;7.97;75.73;100303.47;4973363;28;20031;-58
2022/09/11 00:43:59;;;;;;;23.88;14.48;;;;;;;7.91;75.63;100306.06;4979820;28;20023;-59
2022/09/11 00:46:33;;;;;;;22.58;14.57;;;;;;;7.91;75.92;100313.81;4964825;29;20039;-59
2022/09/11 00:49:01;;;;;;;22.52;15.00;;;;;;;7.86;76.29;100305.19;4963375;28;20261;-58
2022/09/11 00:51:32;;;;;;;23.30;14.45;;;;;;;7.72;75.65;100289.72;4962190;29;20193;-58
2022/09/11 00:53:59;;;;;;;20.33;14.32;;;;;;;7.83;75.82;100305.19;4963930;28;20033;-58
2022/09/11 00:56:30;;;;;;;23.88;15.63;;;;;;;7.71;76.37;100286.28;4964717;29;20050;-59
2022/09/11 00:58:57;;;;;;;20.00;14.52;;;;;;;7.71;76.55;100290.56;4964938;29;20345;-59
2022/09/11 01:01:23;;;;;;;21.92;15.63;;;;;;;7.78;75.97;100303.47;4964679;29;20023;-58
2022/09/11 01:03:49;;;;;;;22.42;14.73;;;;;;;7.74;76.15;100298.31;4964758;29;20097;-58
2022/09/11 01:06:15;;;;;;;23.33;15.65;;;;;;;7.69;77.21;100303.47;4982563;28;20025;-59
2022/09/11 01:08:42;;;;;;;18.58;14.35;;;;;;;7.71;76.50;100303.47;4977705;28;20155;-58
2022/09/11 01:11:31;;;;;;;22.50;14.93;;;;;;;7.62;76.94;100280.28;4975105;28;20031;-59
2022/09/11 01:13:59;;;;;;;24.35;16.35;;;;;;;7.64;76.95;100299.16;4964424;28;20027;-59
2022/09/11 01:16:40;;;;;;;20.77;15.25;;;;;;;7.61;77.27;100307.78;4947324;29;20239;-59
2022/09/11 01:19:26;;;;;;;22.88;15.45;;;;;;;7.31;77.00;100255.34;4947327;28;20377;-59
2022/09/11 01:22:16;;;;;;;22.55;15.27;;;;;;;7.58;77.01;100300.91;4964503;29;20065;-57
2022/09/11 01:24:58;;;;;;;23.88;16.15;;;;;;;7.57;77.47;100298.31;4945397;29;20031;-57
2022/09/11 01:27:59;;;;;;;20.52;15.45;;;;;;;7.24;76.48;100243.31;4982688;28;20026;-58
2022/09/11 01:30:45;;;;;;;20.40;16.20;;;;;;;7.53;76.34;100296.59;4965145;28;20231;-58
2022/09/11 01:33:29;;;;;;;21.10;15.25;;;;;;;7.21;76.16;100248.44;4964218;28;20216;-58
2022/09/11 01:36:06;;;;;;;21.90;15.70;;;;;;;7.48;77.17;100301.75;4949611;29;20027;-58
2022/09/11 01:39:03;;;;;;;22.23;15.48;;;;;;;7.44;76.84;100297.44;4967861;29;20081;-58
2022/09/11 01:41:41;;;;;;;24.08;15.30;;;;;;;7.38;77.29;100298.28;4955940;29;20043;-57
2022/09/11 01:44:16;;;;;;;25.00;16.98;;;;;;;7.41;76.48;100293.13;4965357;29;20023;-58
2022/09/11 01:46:48;;;;;;;23.98;16.40;;;;;;;7.36;76.45;100297.41;4967475;29;20023;-59
2022/09/11 01:49:19;;;;;;;23.08;16.15;;;;;;;7.20;76.50;100278.50;4969545;28;20023;-60
2022/09/11 01:51:50;;;;;;;23.42;15.40;;;;;;;7.26;77.55;100293.97;4987631;28;20350;-59
2022/09/11 01:54:20;;;;;;;23.58;16.83;;;;;;;7.28;76.97;100290.53;4976572;28;20051;-59
2022/09/11 01:56:54;;;;;;;17.48;14.68;;;;;;;7.29;77.19;100312.88;4966129;28;20026;-58
2022/09/11 01:59:30;;;;;;;26.55;16.58;;;;;;;6.88;77.32;100225.22;4966822;28;20256;-58
2022/09/11 02:02:06;;;;;;;22.75;16.52;;;;;;;6.94;77.36;100233.78;4967038;28;20038;-58
2022/09/11 02:04:46;;;;;;;23.92;16.75;;;;;;;7.25;77.33;100306.84;4950141;29;20034;-59
2022/09/11 02:07:18;;;;;;;21.17;16.20;;;;;;;7.31;77.14;100280.22;4949722;28;20023;-58
2022/09/11 02:09:55;;;;;;;29.13;19.33;;;;;;;6.98;77.28;100235.53;4966919;28;20034;-58
2022/09/11 02:12:26;;;;;;;25.27;17.17;;;;;;;6.95;77.75;100230.38;4966440;28;20038;-58
2022/09/11 02:14:52;;;;;;;25.30;17.38;;;;;;;7.20;77.67;100275.94;4981381;28;20030;-58
2022/09/11 02:17:39;;;;;;;24.77;17.77;;;;;;;7.30;77.39;100284.53;4969624;28;20334;-58
2022/09/11 02:20:07;;;;;;;27.35;19.05;;;;;;;7.28;77.55;100288.81;4978983;28;20039;-58
2022/09/11 02:22:32;;;;;;;30.90;19.17;;;;;;;7.21;77.84;100279.34;4967333;29;20027;-58
2022/09/11 02:24:58;;;;;;;26.77;18.55;;;;;;;7.29;77.23;100290.53;4967510;29;20091;-58
2022/09/11 02:27:26;;;;;;;28.65;18.75;;;;;;;6.96;76.87;100235.53;4967703;28;20312;-58
2022/09/11 02:29:53;;;;;;;27.10;19.38;;;;;;;7.25;77.45;100286.22;4966145;29;20102;-58
2022/09/11 02:32:20;;;;;;;27.27;19.33;;;;;;;7.26;77.44;100285.38;4967303;29;20073;-62
2022/09/11 02:34:47;;;;;;;27.92;19.10;;;;;;;7.26;77.45;100277.66;4967471;29;20139;-58
2022/09/11 02:37:52;;;;;;;26.00;18.67;;;;;;;7.32;77.23;100277.66;4968068;28;20038;-57
2022/09/11 02:40:18;;;;;;;29.60;19.65;;;;;;;7.30;77.42;100279.38;4967280;29;20196;-58
2022/09/11 02:43:07;;;;;;;27.63;19.38;;;;;;;6.94;77.38;100219.22;4966888;29;20095;-58
2022/09/11 02:46:17;;;;;;;28.10;19.05;;;;;;;7.25;78.12;100281.06;4967160;29;20050;-58
2022/09/11 02:49:03;;;;;;;26.42;19.30;;;;;;;6.88;77.74;100232.06;4925597;29;20089;-58
2022/09/11 02:51:40;;;;;;;27.67;21.08;;;;;;;7.22;78.22;100278.50;4965464;29;20031;-58
2022/09/11 02:54:46;;;;;;;27.10;19.88;;;;;;;7.11;78.02;100268.16;4967031;29;20039;-58
2022/09/11 02:57:37;;;;;;;32.63;20.88;;;;;;;7.20;77.67;100285.38;4966869;29;20102;-58
2022/09/11 03:00:06;;;;;;;27.87;20.23;;;;;;;7.22;77.74;100286.22;4967047;29;20027;-58
2022/09/11 03:02:36;;;;;;;31.08;22.10;;;;;;;6.84;77.66;100222.63;4977843;28;20284;-58
2022/09/11 03:05:03;;;;;;;27.65;20.10;;;;;;;7.15;77.89;100280.19;4986241;28;20061;-58
2022/09/11 03:07:29;;;;;;;29.80;22.42;;;;;;;7.14;77.68;100275.91;4981596;28;20039;-58
2022/09/11 03:09:54;;;;;;;25.75;21.30;;;;;;;7.15;78.00;100276.78;4963215;29;20026;-58
2022/09/11 03:12:20;;;;;;;27.83;20.65;;;;;;;7.15;77.78;100269.03;4949220;29;20201;-58
2022/09/11 03:14:45;;;;;;;32.15;21.70;;;;;;;7.12;78.74;100269.88;4960662;29;20130;-58
2022/09/11 03:17:12;;;;;;;28.45;21.90;;;;;;;7.19;77.96;100268.19;4943523;29;20028;-58
2022/09/11 03:19:37;;;;;;;29.27;21.95;;;;;;;7.22;77.98;100263.03;4931961;29;20031;-58
2022/09/11 03:22:03;;;;;;;32.70;22.42;;;;;;;7.14;78.19;100252.75;4947326;29;20122;-58
2022/09/11 03:24:29;;;;;;;28.05;21.90;;;;;;;7.13;78.19;100257.91;4947212;29;20031;-59
2022/09/11 03:26:54;;;;;;;31.77;22.27;;;;;;;7.21;78.04;100269.03;4947142;29;20323;-59
2022/09/11 03:29:20;;;;;;;30.33;23.13;;;;;;;7.23;78.19;100264.78;4956429;29;20023;-58
2022/09/11 03:31:46;;;;;;;32.67;23.30;;;;;;;7.22;77.88;100263.91;4966193;29;20054;-58
2022/09/11 03:34:12;;;;;;;33.58;22.00;;;;;;;7.23;77.42;100267.34;4966409;29;20311;-58
2022/09/11 03:36:38;;;;;;;32.15;23.40;;;;;;;7.25;77.62;100263.03;4965170;29;20197;-58
2022/09/11 03:39:04;;;;;;;32.95;23.00;;;;;;;7.32;77.80;100262.19;4951295;29;20124;-58
2022/09/11 03:41:29;;;;;;;31.08;23.25;;;;;;;7.32;77.85;100259.63;4946837;29;20027;-57
2022/09/11 03:43:55;;;;;;;30.98;22.02;;;;;;;7.28;77.52;100242.44;4946517;29;20067;-58
2022/09/11 03:46:21;;;;;;;29.17;22.25;;;;;;;7.38;77.24;100254.50;4946073;29;20019;-58
2022/09/11 03:48:47;;;;;;;36.80;22.58;;;;;;;7.38;77.37;100251.91;4947150;29;20045;-58
2022/09/11 03:51:13;;;;;;;28.83;22.23;;;;;;;7.43;77.22;100255.34;4962700;29;20113;-58
2022/09/11 03:53:43;;;;;;;29.98;22.67;;;;;;;7.48;77.77;100257.06;4965912;29;20192;-58
2022/09/11 03:56:10;;;;;;;29.38;21.75;;;;;;;7.50;77.64;100261.34;4958252;29;20038;-57
2022/09/11 03:58:36;;;;;;;32.45;22.75;;;;;;;7.54;77.85;100260.50;4949857;29;20047;-57
2022/09/11 04:01:08;;;;;;;29.83;22.38;;;;;;;7.32;77.51;100212.41;4965816;29;20188;-60
2022/09/11 04:03:34;;;;;;;30.33;23.38;;;;;;;7.63;77.66;100251.91;4961821;28;20023;-58
2022/09/11 04:06:01;;;;;;;30.85;22.90;;;;;;;7.33;76.77;100207.25;4946440;29;20030;-58
2022/09/11 04:08:32;;;;;;;36.53;23.50;;;;;;;7.71;77.09;100259.63;4949555;29;20079;-58
2022/09/11 04:10:59;;;;;;;28.83;22.52;;;;;;;7.78;77.70;100253.59;4952265;29;20042;-58
2022/09/11 04:13:30;;;;;;;30.55;22.45;;;;;;;7.77;76.55;100245.03;4965480;29;20263;-58
2022/09/11 04:16:01;;;;;;;28.17;21.75;;;;;;;7.94;77.01;100277.69;4965725;29;20028;-58
2022/09/11 04:18:27;;;;;;;;;;;;;;;7.98;75.71;100256.19;4965880;29;20038;-58
2022/09/11 04:20:53;;;;;;;33.50;23.20;;;;;;;8.05;75.46;100259.59;4952214;29;19910;-60
2022/09/11 04:23:19;;;;;;;32.13;21.98;;;;;;;8.13;74.84;100256.13;4954742;29;20039;-58
2022/09/11 04:25:45;;;;;;;30.40;23.60;;;;;;;8.02;75.47;100218.34;4961230;29;20137;-58
2022/09/11 04:28:11;;;;;;;31.15;22.20;;;;;;;8.28;75.63;100249.25;4945995;29;20334;-58
2022/09/11 04:30:37;;;;;;;30.95;22.45;;;;;;;8.35;74.39;100248.38;4945862;29;20028;-58
2022/09/11 04:33:04;;;;;;;29.35;22.27;;;;;;;8.32;73.97;100242.34;4945785;29;20039;-58
2022/09/11 04:35:39;;;;;;;28.52;22.63;;;;;;;8.49;74.82;100255.22;4955953;29;20031;-58
2022/09/11 04:38:06;;;;;;;30.83;23.05;;;;;;;8.53;74.96;100257.78;4958383;29;20094;-58
2022/09/11 04:40:33;;;;;;;27.77;20.23;;;;;;;8.62;74.76;100259.47;4948134;29;20106;-58
2022/09/11 04:42:59;;;;;;;31.52;22.25;;;;;;;8.64;74.28;100260.31;4964239;29;20091;-58
2022/09/11 04:45:26;;;;;;;29.35;21.73;;;;;;;8.70;74.37;100254.28;4944813;29;20138;-58
2022/09/11 04:47:51;;;;;;;33.25;21.05;;;;;;;8.80;74.74;100255.94;4944520;29;20032;-57
2022/09/11 04:50:18;;;;;;;29.23;20.50;;;;;;;8.88;74.57;100253.31;4944987;29;20027;-58
2022/09/11 04:52:44;;;;;;;28.63;20.73;;;;;;;8.94;73.25;100255.88;4944235;29;20038;-57
2022/09/11 04:55:10;;;;;;;28.38;20.33;;;;;;;9.02;74.16;100255.81;4945834;29;20112;-59
2022/09/11 04:57:37;;;;;;;32.47;22.73;;;;;;;9.04;74.08;100249.78;4964270;29;20027;-59
2022/09/11 05:00:04;;;;;;;33.00;22.30;;;;;;;8.73;72.84;100200.88;4964910;29;20058;-59
2022/09/11 05:02:30;;;;;;;29.55;21.33;;;;;;;9.12;71.13;100248.03;4954794;29;20240;-59
2022/09/11 05:04:57;;;;;;;30.88;21.23;;;;;;;9.29;71.37;100254.78;4950845;29;20031;-59
2022/09/11 05:07:24;;;;;;;31.92;20.70;;;;;;;9.21;71.31;100230.75;4963379;29;20037;-59
2022/09/11 05:09:53;;;;;;;30.13;21.98;;;;;;;9.45;70.79;100261.56;4961051;28;20031;-58
2022/09/11 05:12:20;;;;;;;26.50;18.83;;;;;;;9.57;69.88;100259.78;4948126;29;20032;-58
2022/09/11 05:14:46;;;;;;;27.23;18.65;;;;;;;9.68;70.18;100245.03;4957312;29;20038;-58
2022/09/11 05:17:12;;;;;;;28.63;19.85;;;;;;;9.77;70.00;100246.66;4964520;29;20031;-58
2022/09/11 05:19:39;;;;;;;24.52;18.20;;;;;;;9.88;69.36;100252.59;4960665;29;20027;-58
2022/09/11 05:22:07;;;;;;;27.17;19.95;;;;;;;9.94;69.83;100249.94;4945461;29;20045;-58
2022/09/11 05:24:33;;;;;;;26.13;18.70;;;;;;;10.04;69.89;100248.13;4963575;29;20042;-59
2022/09/11 05:26:59;;;;;;;25.75;18.63;;;;;;;10.07;68.67;100244.66;4964480;29;20032;-59
2022/09/11 05:29:28;;;;;;;29.20;20.38;;;;;;;10.10;69.11;100244.63;4964583;29;20034;-58
2022/09/11 05:31:54;;;;;;;26.38;18.48;;;;;;;10.16;68.13;100244.53;4959744;29;20032;-58
2022/09/11 05:34:21;;;;;;;21.75;17.35;;;;;;;10.29;69.54;100246.16;4945403;29;20316;-58
2022/09/11 05:36:47;;;;;;;16.70;14.02;;;;;;;10.35;67.15;100246.09;4945451;29;20054;-58
2022/09/11 05:39:12;;;;;;;22.15;15.50;;;;;;;10.46;67.16;100251.16;4945106;29;20324;-58
2022/09/11 05:41:38;;;;;;;23.35;15.45;;;;;;;10.51;65.91;100239.00;4945237;29;20140;-59
2022/09/11 05:44:03;;;;;;;25.58;14.02;;;;;;;10.60;66.43;100232.00;4944815;29;20050;-59
2022/09/11 05:46:29;;;;;;;20.20;15.15;;;;;;;10.76;66.43;100230.94;4945424;29;20139;-58
2022/09/11 05:48:54;;;;;;;23.92;16.05;;;;;;;10.84;65.50;100243.78;4945273;29;20315;-59
2022/09/11 05:51:21;;;;;;;21.30;14.10;;;;;;;10.98;65.77;100236.66;4943846;29;20023;-59
2022/09/11 05:53:49;;;;;;;22.70;14.88;;;;;;;11.01;65.84;100225.41;4945108;29;20099;-58
2022/09/11 05:56:19;;;;;;;21.02;14.82;;;;;;;11.18;65.76;100238.97;4944935;29;20043;-59
2022/09/11 05:58:47;;;;;;;20.63;14.52;;;;;;;11.15;64.25;100233.81;4945041;29;20023;-59
2022/09/11 06:01:15;;;;;;;25.58;14.77;;;;;;;11.26;63.62;100246.63;4945179;29;20219;-58
2022/09/11 06:03:41;;;;;;;21.15;14.38;;;;;;;11.37;64.90;100231.78;4963717;29;20028;-59
2022/09/11 06:06:10;;;;;;;20.02;14.38;;;;;;;11.49;63.07;100238.50;4949894;29;20040;-59
2022/09/11 06:08:38;;;;;;;18.35;13.05;;;;;;;11.57;63.03;100226.25;4948443;29;20099;-59
2022/09/11 06:11:06;;;;;;;19.52;13.27;;;;;;;11.68;62.66;100230.41;4943616;29;20024;-59
2022/09/11 06:13:34;;;;;;;21.73;15.32;;;;;;;11.48;62.75;100189.25;4944898;29;20039;-58
2022/09/11 06:16:01;;;;;;;17.77;12.68;;;;;;;11.87;62.10;100231.81;4943657;29;20232;-58
2022/09/11 06:18:28;;;;;;;21.23;14.50;;;;;;;11.94;62.95;100224.75;4945015;29;20090;-58
2022/09/11 06:21:02;;;;;;;21.98;14.63;;;;;;;11.75;61.51;100177.50;4956038;28;20324;-58
2022/09/11 06:23:28;;;;;;;19.70;13.77;;;;;;;12.13;61.93;100227.91;4966849;29;20029;-58
2022/09/11 06:26:01;;;;;;;19.10;14.30;;;;;;;12.01;62.21;100196.97;4966443;29;20026;-59
2022/09/11 06:28:27;;;;;;;20.70;13.95;;;;;;;12.27;63.14;100230.22;4966545;29;20312;-59
2022/09/11 06:30:53;;;;;;;13.10;10.77;;;;;;;12.29;59.89;100219.81;4948165;29;20055;-58
2022/09/11 06:33:22;;;;;;;14.68;10.52;;;;;;;12.35;59.98;100223.13;4948211;29;20038;-59
2022/09/11 06:36:00;;;;;;;17.88;11.20;;;;;;;12.49;59.33;100233.25;4959604;29;20039;-60
2022/09/11 06:38:27;;;;;;;12.05;9.43;;;;;;;12.59;58.41;100234.75;4973393;28;20030;-59
2022/09/11 06:40:53;;;;;;;15.70;9.13;;;;;;;12.66;57.91;100227.69;4947899;29;20032;-62
2022/09/11 06:43:19;;;;;;;12.65;8.88;;;;;;;12.78;59.34;100222.25;4948077;29;20031;-60
2022/09/11 06:45:47;;;;;;;10.05;8.18;;;;;;;12.91;58.83;100224.53;4966677;29;20050;-58
2022/09/11 06:48:14;;;;;;;11.75;8.20;;;;;;;12.99;58.40;100220.03;4963498;28;20055;-59
2022/09/11 06:50:40;;;;;;;12.05;9.05;;;;;;;13.03;57.50;100213.88;4978780;28;20231;-58
2022/09/11 06:53:09;;;;;;;12.25;7.97;;;;;;;13.08;56.85;100232.84;4947155;29;20028;-59
2022/09/11 06:55:35;;;;;;;10.50;7.50;;;;;;;13.17;56.89;100229.16;4947721;29;20044;-58
2022/09/11 06:58:03;;;;;;;11.75;6.53;;;;;;;13.28;54.57;100224.56;4947808;29;20031;-58
2022/09/11 07:00:29;;;;;;;9.05;5.65;;;;;;;13.41;55.53;100214.75;4947694;29;20027;-58
2022/09/11 07:02:56;;;;;;;8.45;6.68;;;;;;;13.55;56.79;100218.75;4947575;29;20251;-60
2022/09/11 07:05:23;;;;;;;9.07;6.35;;;;;;;13.64;56.64;100214.16;4955458;29;20027;-59
2022/09/11 07:07:51;;;;;;;9.27;6.07;;;;;;;13.58;56.55;100206.53;4966319;29;20208;-60
2022/09/11 07:10:17;;;;;;;10.73;6.53;;;;;;;13.71;54.50;100212.28;4947873;29;20107;-59
2022/09/11 07:12:43;;;;;;;14.85;7.30;;;;;;;13.77;54.45;100212.09;4946192;29;20028;-60
2022/09/11 07:15:09;;;;;;;13.88;7.70;;;;;;;13.79;54.01;100206.84;4947463;29;20075;-60
2022/09/11 07:17:35;;;;;;;8.82;7.28;;;;;;;13.76;53.42;100202.56;4947298;29;20042;-59
2022/09/11 07:20:03;;;;;;;12.07;7.93;;;;;;;14.04;54.50;100214.88;4947048;29;20031;-59
2022/09/11 07:22:30;;;;;;;10.00;7.25;;;;;;;13.97;52.57;100208.13;4947484;29;20094;-59
2022/09/11 07:24:56;;;;;;;13.77;7.47;;;;;;;13.90;53.06;100204.81;4947136;29;20027;-60
2022/09/11 07:27:22;;;;;;;11.93;8.20;;;;;;;14.07;54.07;100199.16;4947081;29;20335;-59
2022/09/11 07:29:47;;;;;;;11.23;7.63;;;;;;;14.14;53.14;100179.00;4958061;29;20034;-59
2022/09/11 07:32:13;;;;;;;8.45;5.85;;;;;;;14.22;51.71;100197.88;4958384;29;20035;-59
2022/09/11 07:34:39;;;;;;;9.85;5.85;;;;;;;14.39;52.81;100194.78;4946601;29;20051;-59
2022/09/11 07:37:05;;;;;;;9.15;5.43;;;;;;;14.39;51.95;100188.72;4945908;29;20049;-60
2022/09/11 07:39:30;;;;;;;6.10;4.22;;;;;;;14.48;50.75;100189.31;4946806;29;20046;-59
2022/09/11 07:41:56;;;;;;;5.10;3.78;;;;;;;14.53;50.74;100185.72;4946707;29;20035;-59
2022/09/11 07:44:22;;;;;;;5.70;4.03;;;;;;;14.50;49.58;100181.44;4953048;29;20215;-60
2022/09/11 07:46:48;;;;;;;5.75;3.83;;;;;;;14.63;50.04;100174.13;4962943;29;20031;-59
2022/09/11 07:49:14;;;;;;;10.40;3.58;;;;;;;14.71;49.03;100173.91;4946642;29;20046;-60
2022/09/11 07:51:40;;;;;;;5.05;3.25;;;;;;;14.77;49.58;100178.94;4946846;29;20027;-59
2022/09/11 07:54:06;;;;;;;4.00;3.50;;;;;;;14.78;49.22;100170.22;4946533;29;20074;-59
2022/09/11 07:56:33;;;;;;;5.57;3.75;;;;;;;14.78;49.06;100167.63;4955275;29;20037;-59
2022/09/11 07:59:00;;;;;;;5.03;3.50;;;;;;;14.83;49.39;100166.53;4960991;29;20035;-59
2022/09/11 08:01:29;;;;;;;4.40;3.70;;;;;;;14.82;49.16;100164.88;4946276;29;20034;-58
2022/09/11 08:03:59;;;;;;;6.03;3.85;;;;;;;14.57;48.14;100125.63;4946438;29;20023;-58
2022/09/11 08:06:27;;;;;;;5.03;3.83;;;;;;;14.30;47.22;100122.94;4946073;29;20095;-59
2022/09/11 08:08:56;;;;;;;7.05;4.50;;;;;;;14.68;48.17;100156.63;4957443;29;20373;-58
2022/09/11 08:11:22;;;;;;;6.07;3.58;;;;;;;14.88;48.19;100168.16;4958044;29;20082;-59
2022/09/11 08:13:52;;;;;;;5.55;3.72;;;;;;;14.95;47.52;100167.94;4946267;29;20332;-58
2022/09/11 08:16:20;;;;;;;4.30;3.33;;;;;;;14.85;46.85;100161.31;4946187;29;20346;-59
2022/09/11 08:18:47;;;;;;;5.35;3.22;;;;;;;14.86;46.38;100159.53;4946075;29;20163;-58
2022/09/11 08:21:13;;;;;;;8.25;3.80;;;;;;;14.86;47.10;100162.16;4975070;28;20078;-58
2022/09/11 08:23:41;;;;;;;5.22;3.70;;;;;;;14.68;46.99;100164.44;4955654;29;20098;-58
2022/09/11 08:26:12;;;;;;;9.63;3.92;;;;;;;14.77;47.75;100152.88;4950149;29;20027;-58
2022/09/11 08:28:42;;;;;;;8.63;3.33;;;;;;;14.86;47.26;100149.97;4963952;29;20038;-58
2022/09/11 08:31:08;;;;;;;6.07;3.30;;;;;;;15.01;47.64;100152.09;4946144;29;20066;-58
2022/09/11 08:33:34;;;;;;;7.22;3.05;;;;;;;15.18;46.65;100145.47;4946037;29;20055;-58
2022/09/11 08:36:03;;;;;;;5.28;3.17;;;;;;;15.24;46.58;100158.31;4945949;29;20366;-58
2022/09/11 08:38:29;;;;;;;5.25;3.15;;;;;;;15.23;46.17;100151.38;4944475;29;20031;-57
2022/09/11 08:41:09;;;;;;;5.65;3.10;;;;;;;15.35;44.28;100144.91;4945918;29;20020;-59
2022/09/11 08:43:43;;;;;;;5.78;3.22;;;;;;;15.27;45.07;100144.31;4944494;29;20130;-58
2022/09/11 08:46:11;;;;;;;4.65;3.17;;;;;;;15.15;43.77;100089.03;4945242;29;20034;-58
2022/09/11 08:49:26;;;;;;;4.30;2.90;;;;;;;15.96;44.18;100138.47;4945811;29;20031;-58
2022/09/11 08:51:59;;;;;;;3.90;3.05;;;;;;;15.95;43.40;100139.38;4945023;29;20036;-59
2022/09/11 08:54:35;;;;;;;5.75;2.90;;;;;;;16.00;43.82;100133.09;4945891;29;20039;-59
2022/09/11 08:57:06;;;;;;;3.88;2.95;;;;;;;15.85;43.03;100133.63;4945704;29;20268;-59
2022/09/11 08:59:55;;;;;;;3.22;2.80;;;;;;;16.02;43.67;100131.25;4945556;29;20350;-58
2022/09/11 09:02:27;;;;;;;6.95;2.88;;;;;;;16.13;44.06;100135.22;4944194;29;20034;-59
2022/09/11 09:05:34;;;;;;;5.40;3.22;;;;;;;16.35;43.24;100138.75;4945802;29;20047;-58
2022/09/11 09:08:28;;;;;;;3.67;2.80;;;;;;;16.36;44.08;100131.75;4888024;29;20048;-58
2022/09/11 09:11:13;;;;;;;4.13;2.65;;;;;;;16.45;43.91;100130.56;4961439;29;20027;-58
2022/09/11 09:14:09;;;;;;;6.15;3.13;;;;;;;16.45;44.20;100130.56;4945452;29;20155;-58
2022/09/11 09:17:07;;;;;;;4.75;3.22;;;;;;;16.03;44.03;100137.31;4945507;29;20028;-58
2022/09/11 09:19:38;;;;;;;3.45;2.70;;;;;;;16.18;43.95;100131.53;4937184;29;20240;-59
2022/09/11 09:22:33;;;;;;;7.60;3.33;;;;;;;15.93;43.86;100131.56;4945517;29;20097;-59
2022/09/11 09:25:04;;;;;;;6.25;3.05;;;;;;;15.95;45.24;100127.16;4891615;29;20085;-59
2022/09/11 09:27:34;;;;;;;6.15;2.90;;;;;;;15.93;44.79;100115.91;4957644;29;20023;-58
2022/09/11 09:30:06;;;;;;;5.32;3.25;;;;;;;15.69;43.75;100078.44;4964566;29;20031;-59
2022/09/11 09:32:40;;;;;;;5.55;3.03;;;;;;;15.84;44.62;100129.31;4964638;29;20247;-59
2022/09/11 09:35:22;;;;;;;5.28;3.08;;;;;;;15.91;44.49;100102.06;4964600;29;20254;-59
2022/09/11 09:37:48;;;;;;;3.75;2.90;;;;;;;15.94;44.43;100127.22;4962113;29;20086;-59
2022/09/11 09:40:16;;;;;;;5.32;3.08;;;;;;;15.67;44.25;100106.38;4945185;29;20557;-59
2022/09/11 09:43:17;;;;;;;5.50;3.60;;;;;;;15.81;44.29;100125.03;4944991;29;20042;-59
2022/09/11 09:46:32;;;;;;;4.05;3.00;;;;;;;15.72;44.61;100117.53;4945304;29;20031;-59
2022/09/11 09:49:00;;;;;;;5.88;3.20;;;;;;;15.82;44.73;100120.69;4922616;29;20320;-59
2022/09/11 09:51:26;;;;;;;4.32;3.13;;;;;;;15.98;45.08;100121.81;4945026;29;20061;-58
2022/09/11 09:53:57;;;;;;;4.70;3.25;;;;;;;15.83;44.92;100115.41;4945076;29;20071;-59
2022/09/11 09:56:23;;;;;;;6.38;3.45;;;;;;;15.83;44.88;100106.72;4947726;29;20094;-59
2022/09/11 09:58:59;;;;;;;6.45;3.00;;;;;;;15.60;43.67;100065.72;4948597;29;20035;-59
2022/09/11 10:01:49;;;;;;;8.23;3.38;;;;;;;15.98;44.23;100120.97;4948890;29;20027;-59
2022/09/11 10:04:16;;;;;;;6.03;3.25;;;;;;;16.09;44.83;100115.34;4929691;29;20079;-59
2022/09/11 10:06:47;;;;;;;5.30;3.15;;;;;;;15.62;43.43;100053.47;4946617;29;20032;-59
2022/09/11 10:09:28;;;;;;;7.40;3.10;;;;;;;15.75;43.41;100109.56;4961510;29;20110;-59
2022/09/11 10:11:59;;;;;;;7.40;2.83;;;;;;;15.78;44.50;100098.16;4956709;29;20320;-58
2022/09/11 10:14:25;;;;;;;13.57;3.73;;;;;;;16.05;44.74;100106.78;4952564;29;20056;-58
2022/09/11 10:16:52;;;;;;;4.70;2.67;;;;;;;16.12;44.45;100110.88;4950826;29;20034;-58
2022/09/11 10:19:39;;;;;;;5.95;3.22;;;;;;;15.67;43.69;100056.78;4967555;29;20027;-58
2022/09/11 10:22:29;;;;;;;4.78;3.20;;;;;;;15.79;43.91;100060.72;4929163;29;20091;-58
2022/09/11 10:25:18;;;;;;;6.10;3.40;;;;;;;16.21;44.71;100102.66;4946033;29;20034;-58
2022/09/11 10:28:04;;;;;;;3.80;3.00;;;;;;;16.19;44.81;100095.81;4946093;29;20027;-58
2022/09/11 10:30:39;;;;;;;6.68;3.35;;;;;;;15.69;42.48;100055.81;4946665;29;20371;-58
2022/09/11 10:33:44;;;;;;;3.88;2.88;;;;;;;15.95;42.60;100102.81;4949080;29;20023;-58
2022/09/11 10:36:11;;;;;;;3.85;2.88;;;;;;;16.05;43.52;100105.00;4841624;29;20156;-58
2022/09/11 10:38:46;;;;;;;3.90;2.78;;;;;;;16.08;43.71;100124.09;4925087;29;20044;-59
2022/09/11 10:41:12;;;;;;;4.97;2.70;;;;;;;16.06;42.16;100105.84;4952243;29;20035;-58
2022/09/11 10:43:46;;;;;;;3.38;2.40;;;;;;;16.03;42.64;100104.22;4967199;29;20055;-59
2022/09/11 10:46:21;;;;;;;4.47;2.70;;;;;;;15.97;42.55;100094.00;4966386;29;20030;-57
2022/09/11 10:48:53;;;;;;;3.95;2.78;;;;;;;16.05;43.40;100098.94;4949606;29;20343;-57
2022/09/11 10:51:19;;;;;;;4.00;2.50;;;;;;;15.98;43.42;100092.25;4961680;29;20268;-57
2022/09/11 10:54:06;;;;;;;5.82;3.00;;;;;;;15.97;42.87;100086.16;4956913;29;20090;-58
2022/09/11 10:56:39;;;;;;;6.78;3.17;;;;;;;16.00;43.29;100106.97;4955313;29;20027;-58
2022/09/11 10:59:14;;;;;;;4.93;3.00;;;;;;;16.00;43.55;100077.34;4967021;29;20042;-58
2022/09/11 11:01:39;;;;;;;4.55;2.65;;;;;;;16.11;43.89;100088.25;4966437;29;20027;-58
2022/09/11 11:04:10;;;;;;;3.70;2.60;;;;;;;15.74;43.14;100042.56;4947674;29;20036;-59
2022/09/11 11:07:14;;;;;;;5.13;3.10;;;;;;;15.91;43.31;100091.63;4947583;29;20027;-58
2022/09/11 11:10:20;;;;;;;4.70;2.60;;;;;;;15.61;43.38;100036.13;4902825;29;20061;-58
2022/09/11 11:13:30;;;;;;;4.45;2.90;;;;;;;15.85;43.40;100070.94;4949571;29;20035;-58
2022/09/11 11:16:16;;;;;;;6.50;2.95;;;;;;;15.96;43.77;100083.59;4932448;29;20063;-58
2022/09/11 11:19:03;;;;;;;5.72;2.85;;;;;;;16.01;43.80;100077.28;4947182;29;20024;-58
2022/09/11 11:21:56;;;;;;;7.18;2.90;;;;;;;15.44;43.17;100036.72;4962248;29;20086;-58
2022/09/11 11:24:46;;;;;;;7.75;2.70;;;;;;;15.99;43.85;100073.91;4966168;29;20027;-57
2022/09/11 11:27:35;;;;;;;5.70;3.13;;;;;;;16.04;43.64;100071.94;4953805;29;20086;-58
2022/09/11 11:30:17;;;;;;;4.18;3.03;;;;;;;15.88;43.74;100066.44;4947117;29;20031;-58
2022/09/11 11:33:32;;;;;;;4.53;3.17;;;;;;;16.08;44.26;100069.25;4947191;29;20034;-58
2022/09/11 11:36:23;;;;;;;5.75;3.00;;;;;;;16.11;44.92;100063.91;4928486;29;20074;-58
2022/09/11 11:39:00;;;;;;;3.47;3.00;;;;;;;16.17;45.31;100081.94;4946950;29;20031;-57
2022/09/11 11:41:38;;;;;;;5.47;3.03;;;;;;;16.24;44.63;100070.34;4946755;29;20031;-58
2022/09/11 11:44:08;;;;;;;5.25;2.90;;;;;;;16.13;44.10;100069.91;4946554;29;20039;-59